sensor_id;sensor_type;location;lat;lon;timestamp;P1;durP1;ratioP1;P2;durP2;ratioP2
77304;SDS011;66364;52.622;7.746;2023-05-07T00:00:35;25.20;;;22.58;;
77304;SDS011;66364;52.622;7.746;2023-05-07T00:02:35;25.73;;;23.03;;
77304;SDS011;66364;52.622;7.746;2023-05-07T00:04:36;24.00;;;21.50;;
77304;SDS011;66364;52.622;7.746;2023-05-07T00:06:37;26.63;;;22.87;;
77304;SDS011;66364;52.622;7.746;2023-05-07T00:08:38;24.70;;;22.10;;
77304;SDS011;66364;52.622;7.746;2023-05-07T00:10:40;26.68;;;23.38;;
77304;SDS011;66364;52.622;7.746;2023-05-07T00:12:41;26.90;;;22.67;;
77304;SDS011;66364;52.622;7.746;2023-05-07T00:14:43;26.90;;;22.30;;
77304;SDS011;66364;52.622;7.746;2023-05-07T00:16:44;27.53;;;23.60;;
77304;SDS011;66364;52.622;7.746;2023-05-07T00:18:44;26.07;;;21.87;;
77304;SDS011;66364;52.622;7.746;2023-05-07T00:20:45;27.37;;;23.27;;
77304;SDS011;66364;52.622;7.746;2023-05-07T00:22:46;24.70;;;22.10;;
77304;SDS011;66364;52.622;7.746;2023-05-07T00:24:47;25.70;;;23.00;;
77304;SDS011;66364;52.622;7.746;2023-05-07T00:26:48;26.73;;;23.18;;
77304;SDS011;66364;52.622;7.746;2023-05-07T00:28:49;27.75;;;24.70;;
77304;SDS011;66364;52.622;7.746;2023-05-07T00:30:51;28.90;;;26.00;;
77304;SDS011;66364;52.622;7.746;2023-05-07T00:32:53;27.07;;;24.00;;
77304;SDS011;66364;52.622;7.746;2023-05-07T00:34:54;31.33;;;25.27;;
77304;SDS011;66364;52.622;7.746;2023-05-07T00:36:55;31.68;;;24.77;;
77304;SDS011;66364;52.622;7.746;2023-05-07T00:38:56;31.90;;;26.20;;
77304;SDS011;66364;52.622;7.746;2023-05-07T00:41:02;32.13;;;26.05;;
77304;SDS011;66364;52.622;7.746;2023-05-07T00:43:03;29.80;;;25.20;;
77304;SDS011;66364;52.622;7.746;2023-05-07T00:45:05;33.30;;;28.32;;
77304;SDS011;66364;52.622;7.746;2023-05-07T00:47:06;29.42;;;25.65;;
77304;SDS011;66364;52.622;7.746;2023-05-07T00:49:07;29.63;;;26.37;;
77304;SDS011;66364;52.622;7.746;2023-05-07T00:51:09;34.33;;;27.52;;
77304;SDS011;66364;52.622;7.746;2023-05-07T00:53:11;33.92;;;28.05;;
77304;SDS011;66364;52.622;7.746;2023-05-07T00:55:13;34.48;;;28.20;;
77304;SDS011;66364;52.622;7.746;2023-05-07T00:57:14;31.17;;;27.98;;
77304;SDS011;66364;52.622;7.746;2023-05-07T00:59:17;33.67;;;29.55;;
77304;SDS011;66364;52.622;7.746;2023-05-07T01:01:19;34.25;;;29.15;;
77304;SDS011;66364;52.622;7.746;2023-05-07T01:03:20;33.60;;;29.60;;
77304;SDS011;66364;52.622;7.746;2023-05-07T01:05:21;35.40;;;30.55;;
77304;SDS011;66364;52.622;7.746;2023-05-07T01:07:24;36.48;;;30.85;;
77304;SDS011;66364;52.622;7.746;2023-05-07T01:09:26;34.08;;;30.32;;
77304;SDS011;66364;52.622;7.746;2023-05-07T01:11:28;34.33;;;29.72;;
77304;SDS011;66364;52.622;7.746;2023-05-07T01:13:29;36.30;;;29.20;;
77304;SDS011;66364;52.622;7.746;2023-05-07T01:15:30;35.15;;;31.00;;
77304;SDS011;66364;52.622;7.746;2023-05-07T01:17:35;35.30;;;29.40;;
77304;SDS011;66364;52.622;7.746;2023-05-07T01:19:37;33.73;;;29.57;;
77304;SDS011;66364;52.622;7.746;2023-05-07T01:21:38;36.95;;;30.60;;
77304;SDS011;66364;52.622;7.746;2023-05-07T01:23:39;35.85;;;30.77;;
77304;SDS011;66364;52.622;7.746;2023-05-07T01:25:40;35.80;;;30.65;;
77304;SDS011;66364;52.622;7.746;2023-05-07T01:27:41;38.87;;;32.33;;
77304;SDS011;66364;52.622;7.746;2023-05-07T01:29:43;34.80;;;30.35;;
77304;SDS011;66364;52.622;7.746;2023-05-07T01:31:44;35.97;;;29.30;;
77304;SDS011;66364;52.622;7.746;2023-05-07T01:33:45;35.00;;;30.32;;
77304;SDS011;66364;52.622;7.746;2023-05-07T01:35:48;32.55;;;28.62;;
77304;SDS011;66364;52.622;7.746;2023-05-07T01:37:53;32.93;;;29.15;;
77304;SDS011;66364;52.622;7.746;2023-05-07T01:39:55;32.05;;;28.40;;
77304;SDS011;66364;52.622;7.746;2023-05-07T01:41:56;31.55;;;28.35;;
77304;SDS011;66364;52.622;7.746;2023-05-07T01:43:59;31.30;;;27.10;;
77304;SDS011;66364;52.622;7.746;2023-05-07T01:46:01;34.13;;;29.32;;
77304;SDS011;66364;52.622;7.746;2023-05-07T01:48:04;33.18;;;28.42;;
77304;SDS011;66364;52.622;7.746;2023-05-07T01:50:06;31.70;;;28.27;;
77304;SDS011;66364;52.622;7.746;2023-05-07T01:52:10;29.92;;;26.73;;
77304;SDS011;66364;52.622;7.746;2023-05-07T01:54:11;31.42;;;28.05;;
77304;SDS011;66364;52.622;7.746;2023-05-07T01:56:12;36.70;;;31.37;;
77304;SDS011;66364;52.622;7.746;2023-05-07T01:58:13;35.80;;;28.32;;
77304;SDS011;66364;52.622;7.746;2023-05-07T02:00:15;32.90;;;27.62;;
77304;SDS011;66364;52.622;7.746;2023-05-07T02:02:19;30.60;;;27.27;;
77304;SDS011;66364;52.622;7.746;2023-05-07T02:04:20;31.23;;;27.87;;
77304;SDS011;66364;52.622;7.746;2023-05-07T02:06:21;29.83;;;26.70;;
77304;SDS011;66364;52.622;7.746;2023-05-07T02:08:23;30.65;;;26.68;;
77304;SDS011;66364;52.622;7.746;2023-05-07T02:10:23;31.10;;;28.00;;
77304;SDS011;66364;52.622;7.746;2023-05-07T02:12:24;27.37;;;24.37;;
77304;SDS011;66364;52.622;7.746;2023-05-07T02:14:26;28.35;;;25.32;;
77304;SDS011;66364;52.622;7.746;2023-05-07T02:16:27;27.77;;;24.80;;
77304;SDS011;66364;52.622;7.746;2023-05-07T02:18:28;28.73;;;25.17;;
77304;SDS011;66364;52.622;7.746;2023-05-07T02:20:29;30.50;;;25.10;;
77304;SDS011;66364;52.622;7.746;2023-05-07T02:22:30;26.80;;;23.90;;
77304;SDS011;66364;52.622;7.746;2023-05-07T02:24:30;26.27;;;23.40;;
77304;SDS011;66364;52.622;7.746;2023-05-07T02:26:32;30.48;;;23.18;;
77304;SDS011;66364;52.622;7.746;2023-05-07T02:28:33;26.25;;;23.52;;
77304;SDS011;66364;52.622;7.746;2023-05-07T02:30:34;27.63;;;24.63;;
77304;SDS011;66364;52.622;7.746;2023-05-07T02:32:37;26.10;;;22.93;;
77304;SDS011;66364;52.622;7.746;2023-05-07T02:34:38;26.37;;;23.07;;
77304;SDS011;66364;52.622;7.746;2023-05-07T02:36:39;26.65;;;23.77;;
77304;SDS011;66364;52.622;7.746;2023-05-07T02:38:40;29.47;;;24.40;;
77304;SDS011;66364;52.622;7.746;2023-05-07T02:40:41;28.75;;;25.70;;
77304;SDS011;66364;52.622;7.746;2023-05-07T02:42:42;26.43;;;23.80;;
77304;SDS011;66364;52.622;7.746;2023-05-07T02:44:43;31.52;;;25.32;;
77304;SDS011;66364;52.622;7.746;2023-05-07T02:46:45;26.40;;;23.22;;
77304;SDS011;66364;52.622;7.746;2023-05-07T02:48:46;26.75;;;23.00;;
77304;SDS011;66364;52.622;7.746;2023-05-07T02:50:47;27.37;;;24.43;;
77304;SDS011;66364;52.622;7.746;2023-05-07T02:52:50;27.55;;;24.65;;
77304;SDS011;66364;52.622;7.746;2023-05-07T02:54:53;28.27;;;25.40;;
77304;SDS011;66364;52.622;7.746;2023-05-07T02:56:55;26.35;;;23.50;;
77304;SDS011;66364;52.622;7.746;2023-05-07T02:58:57;26.70;;;23.98;;
77304;SDS011;66364;52.622;7.746;2023-05-07T03:00:58;25.00;;;22.30;;
77304;SDS011;66364;52.622;7.746;2023-05-07T03:03:00;24.63;;;21.60;;
77304;SDS011;66364;52.622;7.746;2023-05-07T03:05:03;27.93;;;23.75;;
77304;SDS011;66364;52.622;7.746;2023-05-07T03:07:06;30.10;;;26.82;;
77304;SDS011;66364;52.622;7.746;2023-05-07T03:09:09;26.52;;;23.83;;
77304;SDS011;66364;52.622;7.746;2023-05-07T03:11:12;25.48;;;22.80;;
77304;SDS011;66364;52.622;7.746;2023-05-07T03:13:14;26.20;;;23.45;;
77304;SDS011;66364;52.622;7.746;2023-05-07T03:15:17;26.07;;;23.47;;
77304;SDS011;66364;52.622;7.746;2023-05-07T03:17:20;25.77;;;23.05;;
77304;SDS011;66364;52.622;7.746;2023-05-07T03:19:23;24.32;;;21.80;;
77304;SDS011;66364;52.622;7.746;2023-05-07T03:21:26;27.15;;;23.77;;
77304;SDS011;66364;52.622;7.746;2023-05-07T03:23:29;28.27;;;25.08;;
77304;SDS011;66364;52.622;7.746;2023-05-07T03:25:31;27.82;;;25.00;;
77304;SDS011;66364;52.622;7.746;2023-05-07T03:27:32;28.15;;;25.17;;
77304;SDS011;66364;52.622;7.746;2023-05-07T03:29:33;27.27;;;24.10;;
77304;SDS011;66364;52.622;7.746;2023-05-07T03:31:36;28.42;;;25.43;;
77304;SDS011;66364;52.622;7.746;2023-05-07T03:33:49;28.32;;;23.60;;
77304;SDS011;66364;52.622;7.746;2023-05-07T03:35:54;27.17;;;24.20;;
77304;SDS011;66364;52.622;7.746;2023-05-07T03:37:56;27.73;;;24.82;;
77304;SDS011;66364;52.622;7.746;2023-05-07T03:39:57;32.30;;;24.77;;
77304;SDS011;66364;52.622;7.746;2023-05-07T03:41:58;28.20;;;25.17;;
77304;SDS011;66364;52.622;7.746;2023-05-07T03:43:59;30.88;;;27.30;;
77304;SDS011;66364;52.622;7.746;2023-05-07T03:46:00;30.35;;;25.57;;
77304;SDS011;66364;52.622;7.746;2023-05-07T03:48:03;28.85;;;25.72;;
77304;SDS011;66364;52.622;7.746;2023-05-07T03:50:06;27.30;;;24.40;;
77304;SDS011;66364;52.622;7.746;2023-05-07T03:52:09;27.87;;;24.92;;
77304;SDS011;66364;52.622;7.746;2023-05-07T03:54:10;30.00;;;26.87;;
77304;SDS011;66364;52.622;7.746;2023-05-07T03:56:11;30.27;;;27.07;;
77304;SDS011;66364;52.622;7.746;2023-05-07T03:58:12;28.40;;;25.48;;
77304;SDS011;66364;52.622;7.746;2023-05-07T04:00:13;32.45;;;28.95;;
77304;SDS011;66364;52.622;7.746;2023-05-07T04:02:14;31.60;;;28.35;;
77304;SDS011;66364;52.622;7.746;2023-05-07T04:04:15;29.13;;;25.83;;
77304;SDS011;66364;52.622;7.746;2023-05-07T04:06:16;30.77;;;27.67;;
77304;SDS011;66364;52.622;7.746;2023-05-07T04:08:18;31.90;;;27.62;;
77304;SDS011;66364;52.622;7.746;2023-05-07T04:10:19;29.05;;;25.75;;
77304;SDS011;66364;52.622;7.746;2023-05-07T04:12:20;31.33;;;26.48;;
77304;SDS011;66364;52.622;7.746;2023-05-07T04:14:21;30.73;;;27.37;;
77304;SDS011;66364;52.622;7.746;2023-05-07T04:16:22;30.57;;;26.93;;
77304;SDS011;66364;52.622;7.746;2023-05-07T04:18:23;33.50;;;27.90;;
77304;SDS011;66364;52.622;7.746;2023-05-07T04:20:24;33.15;;;29.05;;
77304;SDS011;66364;52.622;7.746;2023-05-07T04:22:25;33.33;;;28.73;;
77304;SDS011;66364;52.622;7.746;2023-05-07T04:24:26;39.18;;;27.80;;
77304;SDS011;66364;52.622;7.746;2023-05-07T04:26:27;34.03;;;29.20;;
77304;SDS011;66364;52.622;7.746;2023-05-07T04:28:28;35.63;;;30.25;;
77304;SDS011;66364;52.622;7.746;2023-05-07T04:30:29;34.85;;;27.50;;
77304;SDS011;66364;52.622;7.746;2023-05-07T04:32:30;36.80;;;29.50;;
77304;SDS011;66364;52.622;7.746;2023-05-07T04:34:31;36.50;;;28.60;;
77304;SDS011;66364;52.622;7.746;2023-05-07T04:36:33;34.38;;;30.23;;
77304;SDS011;66364;52.622;7.746;2023-05-07T04:38:34;35.38;;;28.75;;
77304;SDS011;66364;52.622;7.746;2023-05-07T04:40:35;34.67;;;30.60;;
77304;SDS011;66364;52.622;7.746;2023-05-07T04:42:36;37.00;;;28.73;;
77304;SDS011;66364;52.622;7.746;2023-05-07T04:44:37;32.93;;;29.40;;
77304;SDS011;66364;52.622;7.746;2023-05-07T04:46:38;36.33;;;29.13;;
77304;SDS011;66364;52.622;7.746;2023-05-07T04:48:39;37.75;;;31.10;;
77304;SDS011;66364;52.622;7.746;2023-05-07T04:50:40;37.80;;;29.67;;
77304;SDS011;66364;52.622;7.746;2023-05-07T04:52:41;34.50;;;29.77;;
77304;SDS011;66364;52.622;7.746;2023-05-07T04:54:43;36.88;;;30.25;;
77304;SDS011;66364;52.622;7.746;2023-05-07T04:56:44;36.95;;;31.33;;
77304;SDS011;66364;52.622;7.746;2023-05-07T04:58:44;37.43;;;30.83;;
77304;SDS011;66364;52.622;7.746;2023-05-07T05:00:45;32.80;;;29.20;;
77304;SDS011;66364;52.622;7.746;2023-05-07T05:02:47;38.30;;;30.97;;
77304;SDS011;66364;52.622;7.746;2023-05-07T05:04:48;37.55;;;29.95;;
77304;SDS011;66364;52.622;7.746;2023-05-07T05:06:49;39.60;;;31.50;;
77304;SDS011;66364;52.622;7.746;2023-05-07T05:08:50;37.60;;;31.45;;
77304;SDS011;66364;52.622;7.746;2023-05-07T05:10:51;41.57;;;31.90;;
77304;SDS011;66364;52.622;7.746;2023-05-07T05:12:52;37.85;;;31.80;;
77304;SDS011;66364;52.622;7.746;2023-05-07T05:14:53;36.73;;;30.30;;
77304;SDS011;66364;52.622;7.746;2023-05-07T05:16:54;38.95;;;32.42;;
77304;SDS011;66364;52.622;7.746;2023-05-07T05:18:57;38.53;;;32.25;;
77304;SDS011;66364;52.622;7.746;2023-05-07T05:20:58;38.50;;;30.83;;
77304;SDS011;66364;52.622;7.746;2023-05-07T05:22:59;41.43;;;31.70;;
77304;SDS011;66364;52.622;7.746;2023-05-07T05:25:00;43.80;;;31.70;;
77304;SDS011;66364;52.622;7.746;2023-05-07T05:27:00;34.60;;;30.80;;
77304;SDS011;66364;52.622;7.746;2023-05-07T05:29:01;40.50;;;32.53;;
77304;SDS011;66364;52.622;7.746;2023-05-07T05:31:02;42.23;;;30.73;;
77304;SDS011;66364;52.622;7.746;2023-05-07T05:33:03;35.95;;;30.72;;
77304;SDS011;66364;52.622;7.746;2023-05-07T05:35:05;39.53;;;31.95;;
77304;SDS011;66364;52.622;7.746;2023-05-07T05:37:06;41.68;;;31.20;;
77304;SDS011;66364;52.622;7.746;2023-05-07T05:39:07;39.55;;;31.40;;
77304;SDS011;66364;52.622;7.746;2023-05-07T05:41:08;37.33;;;31.07;;
77304;SDS011;66364;52.622;7.746;2023-05-07T05:43:10;42.55;;;33.58;;
77304;SDS011;66364;52.622;7.746;2023-05-07T05:45:11;37.53;;;30.83;;
77304;SDS011;66364;52.622;7.746;2023-05-07T05:47:12;36.05;;;32.08;;
77304;SDS011;66364;52.622;7.746;2023-05-07T05:49:16;38.33;;;29.77;;
77304;SDS011;66364;52.622;7.746;2023-05-07T05:51:17;36.30;;;29.00;;
77304;SDS011;66364;52.622;7.746;2023-05-07T05:53:18;36.27;;;29.97;;
77304;SDS011;66364;52.622;7.746;2023-05-07T05:55:18;38.37;;;30.80;;
77304;SDS011;66364;52.622;7.746;2023-05-07T05:57:20;36.98;;;30.08;;
77304;SDS011;66364;52.622;7.746;2023-05-07T05:59:21;37.60;;;31.13;;
77304;SDS011;66364;52.622;7.746;2023-05-07T06:01:22;37.97;;;30.73;;
77304;SDS011;66364;52.622;7.746;2023-05-07T06:03:23;38.80;;;31.15;;
77304;SDS011;66364;52.622;7.746;2023-05-07T06:05:24;35.05;;;31.25;;
77304;SDS011;66364;52.622;7.746;2023-05-07T06:07:25;34.70;;;28.57;;
77304;SDS011;66364;52.622;7.746;2023-05-07T06:09:26;31.30;;;28.00;;
77304;SDS011;66364;52.622;7.746;2023-05-07T06:11:27;32.77;;;29.27;;
77304;SDS011;66364;52.622;7.746;2023-05-07T06:13:28;36.07;;;28.03;;
77304;SDS011;66364;52.622;7.746;2023-05-07T06:15:29;34.98;;;29.55;;
77304;SDS011;66364;52.622;7.746;2023-05-07T06:17:30;33.70;;;28.32;;
77304;SDS011;66364;52.622;7.746;2023-05-07T06:19:31;34.57;;;28.67;;
77304;SDS011;66364;52.622;7.746;2023-05-07T06:21:32;35.40;;;27.73;;
77304;SDS011;66364;52.622;7.746;2023-05-07T06:23:33;31.82;;;26.90;;
77304;SDS011;66364;52.622;7.746;2023-05-07T06:25:34;31.68;;;25.90;;
77304;SDS011;66364;52.622;7.746;2023-05-07T06:27:35;28.63;;;25.13;;
77304;SDS011;66364;52.622;7.746;2023-05-07T06:29:36;32.80;;;26.80;;
77304;SDS011;66364;52.622;7.746;2023-05-07T06:31:37;29.50;;;26.37;;
77304;SDS011;66364;52.622;7.746;2023-05-07T06:33:38;28.93;;;25.90;;
77304;SDS011;66364;52.622;7.746;2023-05-07T06:35:39;28.65;;;24.92;;
77304;SDS011;66364;52.622;7.746;2023-05-07T06:37:41;31.73;;;26.70;;
77304;SDS011;66364;52.622;7.746;2023-05-07T06:39:42;29.20;;;25.57;;
77304;SDS011;66364;52.622;7.746;2023-05-07T06:41:43;28.80;;;24.27;;
77304;SDS011;66364;52.622;7.746;2023-05-07T06:43:44;28.42;;;24.65;;
77304;SDS011;66364;52.622;7.746;2023-05-07T06:45:45;27.97;;;23.50;;
77304;SDS011;66364;52.622;7.746;2023-05-07T06:47:47;30.80;;;25.12;;
77304;SDS011;66364;52.622;7.746;2023-05-07T06:49:48;27.27;;;24.30;;
77304;SDS011;66364;52.622;7.746;2023-05-07T06:51:48;26.70;;;23.90;;
77304;SDS011;66364;52.622;7.746;2023-05-07T06:53:50;29.92;;;26.07;;
77304;SDS011;66364;52.622;7.746;2023-05-07T06:55:51;31.80;;;25.97;;
77304;SDS011;66364;52.622;7.746;2023-05-07T06:57:52;25.93;;;22.90;;
77304;SDS011;66364;52.622;7.746;2023-05-07T06:59:53;27.15;;;22.90;;
77304;SDS011;66364;52.622;7.746;2023-05-07T07:01:54;26.43;;;23.00;;
77304;SDS011;66364;52.622;7.746;2023-05-07T07:03:55;26.30;;;23.47;;
77304;SDS011;66364;52.622;7.746;2023-05-07T07:05:56;27.30;;;24.37;;
77304;SDS011;66364;52.622;7.746;2023-05-07T07:08:03;30.10;;;24.27;;
77304;SDS011;66364;52.622;7.746;2023-05-07T07:10:05;29.85;;;25.85;;
77304;SDS011;66364;52.622;7.746;2023-05-07T07:12:07;30.68;;;25.15;;
77304;SDS011;66364;52.622;7.746;2023-05-07T07:14:07;28.10;;;24.43;;
77304;SDS011;66364;52.622;7.746;2023-05-07T07:16:08;25.83;;;23.13;;
77304;SDS011;66364;52.622;7.746;2023-05-07T07:18:09;26.13;;;23.33;;
77304;SDS011;66364;52.622;7.746;2023-05-07T07:20:11;27.00;;;23.65;;
77304;SDS011;66364;52.622;7.746;2023-05-07T07:22:12;27.70;;;24.82;;
77304;SDS011;66364;52.622;7.746;2023-05-07T07:24:14;28.47;;;21.52;;
77304;SDS011;66364;52.622;7.746;2023-05-07T07:26:17;25.08;;;22.37;;
77304;SDS011;66364;52.622;7.746;2023-05-07T07:28:20;24.80;;;21.70;;
77304;SDS011;66364;52.622;7.746;2023-05-07T07:30:21;28.62;;;23.45;;
77304;SDS011;66364;52.622;7.746;2023-05-07T07:32:28;27.40;;;22.82;;
77304;SDS011;66364;52.622;7.746;2023-05-07T07:34:29;26.07;;;21.55;;
77304;SDS011;66364;52.622;7.746;2023-05-07T07:38:40;24.05;;;21.48;;
77304;SDS011;66364;52.622;7.746;2023-05-07T07:40:41;23.07;;;20.77;;
77304;SDS011;66364;52.622;7.746;2023-05-07T07:42:42;27.00;;;23.85;;
77304;SDS011;66364;52.622;7.746;2023-05-07T07:44:43;27.98;;;24.32;;
77304;SDS011;66364;52.622;7.746;2023-05-07T07:46:44;26.37;;;23.00;;
77304;SDS011;66364;52.622;7.746;2023-05-07T07:48:45;25.60;;;22.90;;
77304;SDS011;66364;52.622;7.746;2023-05-07T07:50:48;25.87;;;21.83;;
77304;SDS011;66364;52.622;7.746;2023-05-07T07:52:50;29.05;;;23.40;;
77304;SDS011;66364;52.622;7.746;2023-05-07T07:57:15;26.17;;;23.38;;
77304;SDS011;66364;52.622;7.746;2023-05-07T07:59:16;26.42;;;22.77;;
77304;SDS011;66364;52.622;7.746;2023-05-07T08:01:17;25.60;;;23.00;;
77304;SDS011;66364;52.622;7.746;2023-05-07T08:03:18;24.37;;;21.60;;
77304;SDS011;66364;52.622;7.746;2023-05-07T08:05:20;25.30;;;22.58;;
77304;SDS011;66364;52.622;7.746;2023-05-07T08:07:21;26.82;;;24.12;;
77304;SDS011;66364;52.622;7.746;2023-05-07T08:09:22;25.10;;;22.00;;
77304;SDS011;66364;52.622;7.746;2023-05-07T08:11:23;26.42;;;23.67;;
77304;SDS011;66364;52.622;7.746;2023-05-07T08:13:24;26.97;;;24.20;;
77304;SDS011;66364;52.622;7.746;2023-05-07T08:15:25;25.70;;;22.97;;
77304;SDS011;66364;52.622;7.746;2023-05-07T08:17:26;24.27;;;21.62;;
77304;SDS011;66364;52.622;7.746;2023-05-07T08:19:27;28.62;;;24.23;;
77304;SDS011;66364;52.622;7.746;2023-05-07T08:21:28;25.77;;;23.07;;
77304;SDS011;66364;52.622;7.746;2023-05-07T08:23:29;25.17;;;22.67;;
77304;SDS011;66364;52.622;7.746;2023-05-07T08:25:30;28.20;;;25.20;;
77304;SDS011;66364;52.622;7.746;2023-05-07T08:27:31;30.70;;;24.37;;
77304;SDS011;66364;52.622;7.746;2023-05-07T08:29:32;28.20;;;24.53;;
77304;SDS011;66364;52.622;7.746;2023-05-07T08:31:33;27.70;;;23.00;;
77304;SDS011;66364;52.622;7.746;2023-05-07T08:33:34;26.25;;;23.45;;
77304;SDS011;66364;52.622;7.746;2023-05-07T08:35:35;28.95;;;24.20;;
77304;SDS011;66364;52.622;7.746;2023-05-07T08:37:36;26.97;;;24.13;;
77304;SDS011;66364;52.622;7.746;2023-05-07T08:39:37;25.90;;;23.25;;
77304;SDS011;66364;52.622;7.746;2023-05-07T08:41:38;29.48;;;26.37;;
77304;SDS011;66364;52.622;7.746;2023-05-07T08:43:40;25.57;;;22.98;;
77304;SDS011;66364;52.622;7.746;2023-05-07T08:45:49;28.62;;;25.75;;
77304;SDS011;66364;52.622;7.746;2023-05-07T08:47:57;27.02;;;24.32;;
77304;SDS011;66364;52.622;7.746;2023-05-07T08:49:59;26.97;;;24.23;;
77304;SDS011;66364;52.622;7.746;2023-05-07T08:51:59;26.90;;;24.10;;
77304;SDS011;66364;52.622;7.746;2023-05-07T08:54:01;27.93;;;24.87;;
77304;SDS011;66364;52.622;7.746;2023-05-07T08:56:02;26.68;;;23.95;;
77304;SDS011;66364;52.622;7.746;2023-05-07T08:58:04;28.32;;;25.37;;
77304;SDS011;66364;52.622;7.746;2023-05-07T09:00:06;25.97;;;22.47;;
77304;SDS011;66364;52.622;7.746;2023-05-07T09:02:07;27.93;;;25.23;;
77304;SDS011;66364;52.622;7.746;2023-05-07T09:04:11;25.75;;;23.15;;
77304;SDS011;66364;52.622;7.746;2023-05-07T09:06:13;26.75;;;24.05;;
77304;SDS011;66364;52.622;7.746;2023-05-07T09:08:14;27.80;;;24.98;;
77304;SDS011;66364;52.622;7.746;2023-05-07T09:10:16;25.45;;;22.70;;
77304;SDS011;66364;52.622;7.746;2023-05-07T09:12:17;26.07;;;23.37;;
77304;SDS011;66364;52.622;7.746;2023-05-07T09:14:18;24.57;;;22.22;;
77304;SDS011;66364;52.622;7.746;2023-05-07T09:16:23;25.75;;;23.10;;
77304;SDS011;66364;52.622;7.746;2023-05-07T09:18:24;25.90;;;23.35;;
77304;SDS011;66364;52.622;7.746;2023-05-07T09:20:25;23.50;;;21.30;;
77304;SDS011;66364;52.622;7.746;2023-05-07T09:22:26;25.60;;;23.02;;
77304;SDS011;66364;52.622;7.746;2023-05-07T09:24:28;26.12;;;23.32;;
77304;SDS011;66364;52.622;7.746;2023-05-07T09:26:29;25.05;;;22.55;;
77304;SDS011;66364;52.622;7.746;2023-05-07T09:28:30;25.03;;;22.73;;
77304;SDS011;66364;52.622;7.746;2023-05-07T09:30:31;25.13;;;22.50;;
77304;SDS011;66364;52.622;7.746;2023-05-07T09:32:36;25.12;;;22.55;;
77304;SDS011;66364;52.622;7.746;2023-05-07T09:34:37;24.57;;;22.27;;
77304;SDS011;66364;52.622;7.746;2023-05-07T09:36:38;25.63;;;23.17;;
77304;SDS011;66364;52.622;7.746;2023-05-07T09:38:39;23.83;;;21.62;;
77304;SDS011;66364;52.622;7.746;2023-05-07T09:40:40;23.70;;;21.50;;
77304;SDS011;66364;52.622;7.746;2023-05-07T09:42:42;22.13;;;20.12;;
77304;SDS011;66364;52.622;7.746;2023-05-07T09:44:43;22.95;;;20.85;;
77304;SDS011;66364;52.622;7.746;2023-05-07T09:46:44;21.93;;;19.82;;
77304;SDS011;66364;52.622;7.746;2023-05-07T09:48:49;23.45;;;21.20;;
77304;SDS011;66364;52.622;7.746;2023-05-07T09:50:54;21.40;;;19.30;;
77304;SDS011;66364;52.622;7.746;2023-05-07T09:52:57;22.60;;;20.60;;
77304;SDS011;66364;52.622;7.746;2023-05-07T09:55:15;23.00;;;20.65;;
77304;SDS011;66364;52.622;7.746;2023-05-07T09:57:16;24.50;;;22.20;;
77304;SDS011;66364;52.622;7.746;2023-05-07T09:59:20;22.32;;;20.27;;
77304;SDS011;66364;52.622;7.746;2023-05-07T10:01:23;23.83;;;21.62;;
77304;SDS011;66364;52.622;7.746;2023-05-07T10:03:27;23.70;;;21.30;;
77304;SDS011;66364;52.622;7.746;2023-05-07T10:05:29;21.30;;;19.23;;
77304;SDS011;66364;52.622;7.746;2023-05-07T10:07:32;22.93;;;20.62;;
77304;SDS011;66364;52.622;7.746;2023-05-07T10:09:33;23.47;;;21.40;;
77304;SDS011;66364;52.622;7.746;2023-05-07T10:11:37;22.70;;;20.50;;
77304;SDS011;66364;52.622;7.746;2023-05-07T10:13:38;22.95;;;20.72;;
77304;SDS011;66364;52.622;7.746;2023-05-07T10:15:40;22.50;;;20.37;;
77304;SDS011;66364;52.622;7.746;2023-05-07T10:17:42;23.60;;;21.50;;
77304;SDS011;66364;52.622;7.746;2023-05-07T10:19:44;22.90;;;20.90;;
77304;SDS011;66364;52.622;7.746;2023-05-07T10:21:50;19.98;;;18.07;;
77304;SDS011;66364;52.622;7.746;2023-05-07T10:24:06;21.65;;;19.65;;
77304;SDS011;66364;52.622;7.746;2023-05-07T10:26:22;22.80;;;20.60;;
77304;SDS011;66364;52.622;7.746;2023-05-07T10:28:25;20.97;;;18.98;;
77304;SDS011;66364;52.622;7.746;2023-05-07T10:32:51;20.45;;;18.70;;
77304;SDS011;66364;52.622;7.746;2023-05-07T10:34:56;21.27;;;19.35;;
77304;SDS011;66364;52.622;7.746;2023-05-07T10:37:00;20.82;;;19.20;;
77304;SDS011;66364;52.622;7.746;2023-05-07T10:39:02;20.08;;;18.32;;
77304;SDS011;66364;52.622;7.746;2023-05-07T10:41:05;19.70;;;18.00;;
77304;SDS011;66364;52.622;7.746;2023-05-07T10:43:06;19.00;;;17.30;;
77304;SDS011;66364;52.622;7.746;2023-05-07T10:45:13;18.85;;;17.25;;
77304;SDS011;66364;52.622;7.746;2023-05-07T10:47:15;20.02;;;17.92;;
77304;SDS011;66364;52.622;7.746;2023-05-07T10:49:17;20.15;;;18.35;;
77304;SDS011;66364;52.622;7.746;2023-05-07T10:51:19;18.07;;;16.67;;
77304;SDS011;66364;52.622;7.746;2023-05-07T10:53:21;20.27;;;18.40;;
77304;SDS011;66364;52.622;7.746;2023-05-07T10:55:24;18.48;;;16.87;;
77304;SDS011;66364;52.622;7.746;2023-05-07T10:59:36;18.85;;;17.23;;
77304;SDS011;66364;52.622;7.746;2023-05-07T11:04:12;17.35;;;15.85;;
77304;SDS011;66364;52.622;7.746;2023-05-07T11:06:15;16.75;;;15.25;;
77304;SDS011;66364;52.622;7.746;2023-05-07T11:08:17;17.82;;;16.35;;
77304;SDS011;66364;52.622;7.746;2023-05-07T11:10:18;17.52;;;15.85;;
77304;SDS011;66364;52.622;7.746;2023-05-07T11:14:44;17.35;;;15.85;;
77304;SDS011;66364;52.622;7.746;2023-05-07T11:16:47;17.35;;;15.85;;
77304;SDS011;66364;52.622;7.746;2023-05-07T11:18:48;16.25;;;14.90;;
77304;SDS011;66364;52.622;7.746;2023-05-07T11:20:55;15.60;;;14.30;;
77304;SDS011;66364;52.622;7.746;2023-05-07T11:22:57;15.43;;;14.15;;
77304;SDS011;66364;52.622;7.746;2023-05-07T11:24:59;14.60;;;13.30;;
77304;SDS011;66364;52.622;7.746;2023-05-07T11:27:00;15.50;;;14.30;;
77304;SDS011;66364;52.622;7.746;2023-05-07T11:29:01;16.60;;;15.20;;
77304;SDS011;66364;52.622;7.746;2023-05-07T11:31:03;15.25;;;14.05;;
77304;SDS011;66364;52.622;7.746;2023-05-07T11:33:06;16.42;;;15.13;;
77304;SDS011;66364;52.622;7.746;2023-05-07T11:35:07;16.90;;;15.35;;
77304;SDS011;66364;52.622;7.746;2023-05-07T11:37:09;15.63;;;14.33;;
77304;SDS011;66364;52.622;7.746;2023-05-07T11:39:30;16.62;;;15.32;;
77304;SDS011;66364;52.622;7.746;2023-05-07T11:41:33;14.40;;;13.10;;
77304;SDS011;66364;52.622;7.746;2023-05-07T11:43:35;16.23;;;14.85;;
77304;SDS011;66364;52.622;7.746;2023-05-07T11:45:36;15.38;;;13.98;;
77304;SDS011;66364;52.622;7.746;2023-05-07T11:47:37;15.30;;;13.90;;
77304;SDS011;66364;52.622;7.746;2023-05-07T11:49:38;14.23;;;13.03;;
77304;SDS011;66364;52.622;7.746;2023-05-07T11:51:39;14.73;;;13.50;;
77304;SDS011;66364;52.622;7.746;2023-05-07T11:53:48;14.58;;;13.38;;
77304;SDS011;66364;52.622;7.746;2023-05-07T11:55:53;16.42;;;14.85;;
77304;SDS011;66364;52.622;7.746;2023-05-07T11:57:56;14.73;;;13.43;;
77304;SDS011;66364;52.622;7.746;2023-05-07T11:59:57;14.23;;;13.10;;
77304;SDS011;66364;52.622;7.746;2023-05-07T12:01:59;14.90;;;13.60;;
77304;SDS011;66364;52.622;7.746;2023-05-07T12:04:02;16.30;;;14.93;;
77304;SDS011;66364;52.622;7.746;2023-05-07T12:06:07;15.28;;;13.98;;